This is the latest recevied weather packets stored in our database for station/object IZ3TCG-13. If no packets are shown the sender has not sent any weather packets the latest 10 day(s).
| Time | Temp. | Humidity | Pressure | Rain* | Wind** | Luminosity | Snow |
|---|---|---|---|---|---|---|---|
| 1777292537 | 25° C | 43% | 1012 hPa | 0 mm | - | - | - |
| 1777291444 | 25° C | 48% | 1012.1 hPa | 0 mm | - | - | - |
| 1777290244 | 23.89° C | 47% | 1012.6 hPa | 0 mm | - | - | - |
| 1777289524 | 24.44° C | 44% | 1012.5 hPa | 0 mm | - | - | - |
| 1777287604 | 23.89° C | 46% | 1012.6 hPa | 0 mm | - | - | - |
| 1777286644 | 23.89° C | 44% | 1013.1 hPa | 0 mm | - | - | - |
| 1777286404 | 24.44° C | 42% | 1013 hPa | 0 mm | - | - | - |
| 1777286164 | 23.89° C | 46% | 1013 hPa | 0 mm | - | - | - |
| 1777285924 | 23.89° C | 43% | 1012.9 hPa | 0 mm | - | - | - |
| 1777282804 | 22.22° C | 43% | 1014.8 hPa | 0 mm | - | - | - |
| 1777282324 | 22.22° C | 45% | 1014.6 hPa | 0 mm | - | - | - |
| 1777280644 | 22.22° C | 45% | 1014.9 hPa | 0 mm | - | - | - |
| 1777279924 | 22.22° C | 43% | 1015.1 hPa | 0 mm | - | - | - |
| 1777279443 | 21.67° C | 42% | 1015 hPa | 0 mm | - | - | - |
| 1777278004 | 20.56° C | 46% | 1015.1 hPa | 0 mm | - | - | - |
| 1777277044 | 20.56° C | 43% | 1015.3 hPa | 0 mm | - | - | - |
| 1777274404 | 19.44° C | 47% | 1015 hPa | 0 mm | - | - | - |
| 1777270563 | 16.67° C | 59% | 1015.1 hPa | 0 mm | - | - | - |
| 1777269733 | 16.67° C | 62% | 1014.8 hPa | 0 mm | - | - | - |
| 1777268404 | 15° C | 68% | 1014.9 hPa | 0 mm | - | - | - |
| 1777267684 | 14.44° C | 72% | 1014.6 hPa | 0 mm | - | - | - |
| 1777266483 | 13.89° C | 78% | 1014.6 hPa | 0 mm | - | - | - |
| 1777264563 | 13.89° C | 81% | 1014.5 hPa | 0 mm | - | - | - |
| 1777263364 | 13.89° C | 83% | 1014.5 hPa | 0 mm | - | - | - |
| 1777261204 | 13.89° C | 84% | 1014.1 hPa | 0 mm | - | - | - |
* Rain latest hour (hover to see other rain measurements)
** Current wind speed in m/s (hover to see current wind gust speed)